createdAt,value
2022-08-28T00:00:02.903Z,101064.16
2022-08-28T00:02:29.284Z,101070.47
2022-08-28T00:04:55.644Z,101075.09
2022-08-28T00:07:22.126Z,101076.25
2022-08-28T00:09:48.458Z,101073.69
2022-08-28T00:12:14.783Z,101071.78
2022-08-28T00:14:41.239Z,101078.97
2022-08-28T00:17:07.681Z,101071.94
2022-08-28T00:19:38.352Z,101070.38
2022-08-28T00:22:05.026Z,101079.72
2022-08-28T00:24:31.316Z,101085.66
2022-08-28T00:26:57.788Z,101089.41
2022-08-28T00:29:24.290Z,101079.81
2022-08-28T00:31:50.653Z,101086.59
2022-08-28T00:34:16.919Z,101086.31
2022-08-28T00:36:43.378Z,101091.09
2022-08-28T00:39:09.845Z,101089.34
2022-08-28T00:41:36.547Z,101089.81
2022-08-28T00:44:02.884Z,101088.94
2022-08-28T00:46:29.179Z,101087.25
2022-08-28T00:48:55.481Z,101087.41
2022-08-28T00:51:21.714Z,101086.66
2022-08-28T00:53:47.962Z,101091.44
2022-08-28T00:56:14.206Z,101091.28
2022-08-28T00:58:40.440Z,101088.69
2022-08-28T01:01:06.685Z,101083.41
2022-08-28T01:03:32.915Z,101091.59
2022-08-28T01:05:59.143Z,101083.41
2022-08-28T01:08:25.361Z,101086.41
2022-08-28T01:10:56.709Z,101082.13
2022-08-28T01:13:22.938Z,101083.97
2022-08-28T01:15:49.354Z,101081.81
2022-08-28T01:18:15.794Z,101081.28
2022-08-28T01:20:42.252Z,101080.41
2022-08-28T01:23:08.481Z,101082.28
2022-08-28T01:25:34.751Z,101082.28
2022-08-28T01:28:01.027Z,101083.13
2022-08-28T01:30:27.273Z,101084.28
2022-08-28T01:32:53.500Z,101086.16
2022-08-28T01:35:19.869Z,101083.72
2022-08-28T01:37:46.220Z,101081.72
2022-08-28T01:40:12.533Z,101084.44
2022-08-28T01:42:38.806Z,101083.44
2022-08-28T01:45:05.053Z,101070.56
2022-08-28T01:47:31.378Z,101081.94
2022-08-28T01:49:57.611Z,101078.31
2022-08-28T01:52:25.453Z,101084.66
2022-08-28T01:54:52.805Z,101078.31
2022-08-28T01:57:19.084Z,101075.75
2022-08-28T01:59:48.813Z,101074.00
2022-08-28T02:02:15.045Z,101073.16
2022-08-28T02:04:43.340Z,101068.44
2022-08-28T02:07:11.257Z,101075.28
2022-08-28T02:09:37.553Z,101073.44
2022-08-28T02:12:03.769Z,101074.28
2022-08-28T02:14:30.065Z,101076.16
2022-08-28T02:16:56.307Z,101079.75
2022-08-28T02:19:22.547Z,101078.59
2022-08-28T02:21:48.765Z,101070.25
2022-08-28T02:24:14.988Z,101071.09
2022-08-28T02:26:41.258Z,101080.03
2022-08-28T02:29:07.491Z,101079.16
2022-08-28T02:31:33.758Z,101074.72
2022-08-28T02:33:59.983Z,101074.41
2022-08-28T02:36:26.235Z,101088.06
2022-08-28T02:38:57.366Z,101077.00
2022-08-28T02:41:24.059Z,101080.56
2022-08-28T02:43:50.289Z,101084.19
2022-08-28T02:46:16.619Z,101086.91
2022-08-28T02:48:42.909Z,101081.44
2022-08-28T02:51:09.329Z,101088.75
2022-08-28T02:53:35.562Z,101087.59
2022-08-28T02:56:01.821Z,101083.88
2022-08-28T02:58:28.055Z,101088.47
2022-08-28T03:00:54.309Z,101087.75
2022-08-28T03:03:20.553Z,101084.88
2022-08-28T03:05:46.805Z,101090.34
2022-08-28T03:08:13.174Z,101092.22
2022-08-28T03:10:39.702Z,101092.22
2022-08-28T03:13:05.936Z,101092.22
2022-08-28T03:15:32.213Z,101097.25
2022-08-28T03:17:58.457Z,101098.25
2022-08-28T03:20:24.705Z,101091.09
2022-08-28T03:22:50.963Z,101096.56
2022-08-28T03:25:17.232Z,101094.59
2022-08-28T03:27:43.456Z,101089.56
2022-08-28T03:30:10.469Z,101101.06
2022-08-28T03:32:36.714Z,101092.16
2022-08-28T03:35:03.004Z,101091.44
2022-08-28T03:37:29.312Z,101091.88
2022-08-28T03:39:55.702Z,101093.75
2022-08-28T03:42:22.104Z,101098.63
2022-08-28T03:44:48.697Z,101099.63
2022-08-28T03:47:14.965Z,101097.03
2022-08-28T03:49:41.872Z,101093.47
2022-08-28T03:52:08.143Z,101090.75
2022-08-28T03:54:34.474Z,101095.63
2022-08-28T03:57:00.746Z,101097.63
2022-08-28T03:59:31.786Z,101102.34
2022-08-28T04:02:01.271Z,101108.09
2022-08-28T04:04:27.596Z,101096.63
2022-08-28T04:06:53.941Z,101104.66
2022-08-28T04:09:20.247Z,101110.41
2022-08-28T04:11:46.552Z,101118.75
2022-08-28T04:14:12.862Z,101115.28
2022-08-28T04:16:39.213Z,101121.75
2022-08-28T04:19:05.593Z,101126.19
2022-08-28T04:21:32.082Z,101120.03
2022-08-28T04:23:58.391Z,101123.75
2022-08-28T04:26:24.640Z,101123.91
2022-08-28T04:28:50.986Z,101123.06
2022-08-28T04:31:32.158Z,101127.91
2022-08-28T04:33:59.184Z,101134.50
2022-08-28T04:36:25.454Z,101131.06
2022-08-28T04:38:51.961Z,101138.41
2022-08-28T04:41:18.319Z,101144.00
2022-08-28T04:43:44.617Z,101149.31
2022-08-28T04:46:11.603Z,101156.75
2022-08-28T04:48:38.002Z,101144.25
2022-08-28T04:51:04.399Z,101139.69
2022-08-28T04:53:30.860Z,101147.84
2022-08-28T04:55:57.339Z,101142.41
2022-08-28T04:58:24.373Z,101143.38
2022-08-28T05:00:50.994Z,101140.78
2022-08-28T05:03:17.389Z,101146.38
2022-08-28T05:05:43.741Z,101141.34
2022-08-28T05:08:10.175Z,101146.34
2022-08-28T05:10:36.473Z,101143.50
2022-08-28T05:13:02.768Z,101145.22
2022-08-28T05:15:29.277Z,101146.81
2022-08-28T05:17:55.629Z,101149.69
2022-08-28T05:20:22.416Z,101149.78
2022-08-28T05:22:48.703Z,101148.94
2022-08-28T05:25:15.017Z,101152.50
2022-08-28T05:27:41.356Z,101150.81
2022-08-28T05:30:07.837Z,101161.13
2022-08-28T05:32:34.199Z,101155.66
2022-08-28T05:35:00.531Z,101157.25
2022-08-28T05:37:26.974Z,101159.13
2022-08-28T05:39:53.282Z,101158.09
2022-08-28T05:42:19.575Z,101167.88
2022-08-28T05:44:45.910Z,101169.91
2022-08-28T05:47:12.391Z,101165.72
2022-08-28T05:49:38.720Z,101155.09
2022-08-28T05:52:05.208Z,101166.00
2022-08-28T05:54:31.591Z,101163.13
2022-08-28T05:56:58.247Z,101170.44
2022-08-28T05:59:24.658Z,101165.13
2022-08-28T06:01:51.075Z,101168.72
2022-08-28T06:04:17.804Z,101168.88
2022-08-28T06:06:44.216Z,101170.44
2022-08-28T06:09:10.528Z,101163.13
2022-08-28T06:11:36.960Z,101167.84
2022-08-28T06:14:05.347Z,101170.44
2022-08-28T06:16:32.332Z,101174.75
2022-08-28T06:18:58.794Z,101162.41
2022-08-28T06:21:34.730Z,101165.97
2022-08-28T06:24:01.003Z,101171.25
2022-08-28T06:26:27.297Z,101171.66
2022-08-28T06:28:53.699Z,101177.81
2022-08-28T06:31:24.732Z,101172.88
2022-08-28T06:33:52.886Z,101173.16
2022-08-28T06:36:19.225Z,101188.38
2022-08-28T06:38:45.613Z,101185.59
2022-08-28T06:41:12.307Z,101183.88
2022-08-28T06:43:38.616Z,101180.44
2022-08-28T06:46:04.892Z,101186.88
2022-08-28T06:48:31.297Z,101190.34
2022-08-28T06:50:57.638Z,101188.06
2022-08-28T06:53:23.945Z,101195.69
2022-08-28T06:55:50.280Z,101200.19
2022-08-28T06:58:16.613Z,101193.91
2022-08-28T07:00:44.002Z,101211.44
2022-08-28T07:03:10.307Z,101203.28
2022-08-28T07:05:36.625Z,101201.47
2022-08-28T07:08:02.912Z,101212.16
2022-08-28T07:10:29.267Z,101211.44
2022-08-28T07:12:55.565Z,101211.28
2022-08-28T07:15:21.920Z,101209.06
2022-08-28T07:17:48.162Z,101212.41
2022-08-28T07:20:14.405Z,101219.16
2022-08-28T07:22:40.631Z,101222.63
2022-08-28T07:25:06.886Z,101221.50
2022-08-28T07:27:33.260Z,101220.59
2022-08-28T07:29:59.525Z,101229.38
2022-08-28T07:32:25.766Z,101227.94
2022-08-28T07:34:52.119Z,101229.25
2022-08-28T07:37:18.744Z,101231.09
2022-08-28T07:39:44.987Z,101222.66
2022-08-28T07:42:11.204Z,101225.94
2022-08-28T07:44:37.451Z,101223.94
2022-08-28T07:47:03.710Z,101220.81
2022-08-28T07:49:30.056Z,101235.44
2022-08-28T07:51:56.306Z,101237.69
2022-08-28T07:54:22.600Z,101224.53
2022-08-28T07:56:48.820Z,101224.94
2022-08-28T07:59:16.972Z,101225.22
2022-08-28T08:01:43.660Z,101239.59
2022-08-28T08:04:09.933Z,101236.59
2022-08-28T08:06:36.281Z,101232.44
2022-08-28T08:09:02.544Z,101236.72
2022-08-28T08:11:32.447Z,101250.69
2022-08-28T08:13:59.038Z,101242.34
2022-08-28T08:16:25.381Z,101243.66
2022-08-28T08:18:51.623Z,101249.97
2022-08-28T08:21:18.020Z,101245.94
2022-08-28T08:23:44.270Z,101234.31
2022-08-28T08:26:10.495Z,101245.38
2022-08-28T08:28:36.749Z,101240.19
2022-08-28T08:31:03.066Z,101238.34
2022-08-28T08:33:29.505Z,101240.63
2022-08-28T08:35:55.736Z,101239.03
2022-08-28T08:38:22.006Z,101243.22
2022-08-28T08:40:48.448Z,101238.19
2022-08-28T08:43:14.789Z,101244.06
2022-08-28T08:45:42.089Z,101247.22
2022-08-28T08:48:09.563Z,101242.34
2022-08-28T08:50:37.234Z,101242.19
2022-08-28T08:53:03.535Z,101247.53
2022-08-28T08:55:29.976Z,101250.38
2022-08-28T08:57:56.372Z,101256.44
2022-08-28T09:00:22.687Z,101252.72
2022-08-28T09:02:49.041Z,101249.38
2022-08-28T09:05:15.402Z,101254.41
2022-08-28T09:07:42.182Z,101257.88
2022-08-28T09:10:08.638Z,101256.13
2022-08-28T09:12:34.971Z,101261.59
2022-08-28T09:15:01.198Z,101259.31
2022-08-28T09:17:27.443Z,101258.72
2022-08-28T09:19:53.664Z,101258.84
2022-08-28T09:22:19.887Z,101270.81
2022-08-28T09:24:46.676Z,101274.81
2022-08-28T09:27:14.480Z,101277.09
2022-08-28T09:29:40.849Z,101272.66
2022-08-28T09:32:07.383Z,101281.13
2022-08-28T09:34:38.594Z,101284.16
2022-08-28T09:37:05.120Z,101278.56
2022-08-28T09:39:31.392Z,101276.38
2022-08-28T09:41:57.709Z,101281.00
2022-08-28T09:44:23.942Z,101281.56
2022-08-28T09:46:50.292Z,101281.88
2022-08-28T09:49:16.514Z,101289.06
2022-08-28T09:51:42.767Z,101287.47
2022-08-28T09:54:09.079Z,101286.75
2022-08-28T09:56:35.349Z,101292.19
2022-08-28T09:59:01.637Z,101294.34
2022-08-28T10:01:27.954Z,101300.28
2022-08-28T10:03:54.318Z,101290.66
2022-08-28T10:06:20.588Z,101302.13
2022-08-28T10:08:46.825Z,101305.88
2022-08-28T10:11:13.045Z,101307.72
2022-08-28T10:13:39.288Z,101305.59
2022-08-28T10:16:06.221Z,101305.88
2022-08-28T10:18:32.654Z,101296.97
2022-08-28T10:21:00.367Z,101298.25
2022-08-28T10:23:26.609Z,101285.13
2022-08-28T10:25:52.831Z,101297.94
2022-08-28T10:28:19.101Z,101307.59
2022-08-28T10:30:45.420Z,101305.44
2022-08-28T10:33:11.701Z,101302.53
2022-08-28T10:35:37.932Z,101308.19
2022-08-28T10:38:04.159Z,101314.19
2022-08-28T10:40:30.416Z,101315.22
2022-08-28T10:42:56.717Z,101308.19
2022-08-28T10:45:22.970Z,101319.09
2022-08-28T10:47:49.203Z,101312.44
2022-08-28T10:50:15.446Z,101322.06
2022-08-28T10:52:41.687Z,101321.22
2022-08-28T10:55:07.915Z,101316.31
2022-08-28T10:57:38.865Z,101324.47
2022-08-28T11:00:06.063Z,101324.81
2022-08-28T11:02:32.429Z,101325.09
2022-08-28T11:04:58.951Z,101324.19
2022-08-28T11:07:25.235Z,101330.56
2022-08-28T11:09:51.481Z,101337.06
2022-08-28T11:12:17.708Z,101336.78
2022-08-28T11:14:47.767Z,101339.22
2022-08-28T11:17:14.948Z,101340.50
2022-08-28T11:19:44.226Z,101342.78
2022-08-28T11:22:11.786Z,101342.09
2022-08-28T11:24:38.001Z,101344.38
2022-08-28T11:27:04.707Z,101353.31
2022-08-28T11:29:30.933Z,101360.06
2022-08-28T11:31:57.170Z,101352.72
2022-08-28T11:34:23.399Z,101340.09
2022-08-28T11:36:50.184Z,101351.41
2022-08-28T11:39:16.396Z,101369.66
2022-08-28T11:41:42.714Z,101363.03
2022-08-28T11:44:08.999Z,101366.78
2022-08-28T11:46:35.316Z,101357.91
2022-08-28T11:49:01.608Z,101364.22
2022-08-28T11:51:27.969Z,101371.06
2022-08-28T11:53:54.485Z,101365.75
2022-08-28T11:56:29.069Z,101369.78
2022-08-28T11:58:58.025Z,101370.81
2022-08-28T12:01:24.561Z,101363.00
2022-08-28T12:03:50.937Z,101362.31
2022-08-28T12:06:17.271Z,101368.88
2022-08-28T12:08:43.558Z,101362.00
2022-08-28T12:11:09.856Z,101360.69
2022-08-28T12:13:36.143Z,101362.25
2022-08-28T12:16:02.639Z,101361.13
2022-08-28T12:18:28.960Z,101356.66
2022-08-28T12:20:55.342Z,101362.72
2022-08-28T12:23:21.635Z,101364.03
2022-08-28T12:25:47.946Z,101361.00
2022-08-28T12:28:14.228Z,101369.50
2022-08-28T12:30:40.570Z,101362.47
2022-08-28T12:33:07.066Z,101365.47
2022-08-28T12:35:33.401Z,101362.19
2022-08-28T12:37:59.745Z,101371.22
2022-08-28T12:40:26.103Z,101373.94
2022-08-28T12:42:55.193Z,101370.34
2022-08-28T12:45:22.098Z,101372.63
2022-08-28T12:47:48.620Z,101368.63
2022-08-28T12:50:14.979Z,101360.88
2022-08-28T12:52:41.512Z,101367.16
2022-08-28T12:55:08.026Z,101361.47
2022-08-28T12:57:36.841Z,101360.44
2022-08-28T13:00:03.164Z,101355.00
2022-08-28T13:02:29.737Z,101366.91
2022-08-28T13:04:57.252Z,101353.25
2022-08-28T13:07:26.921Z,101362.34
2022-08-28T13:09:53.249Z,101356.44
2022-08-28T13:12:19.592Z,101354.72
2022-08-28T13:14:45.866Z,101357.28
2022-08-28T13:17:12.245Z,101354.41
2022-08-28T13:19:38.582Z,101342.84
2022-08-28T13:22:04.910Z,101351.88
2022-08-28T13:24:31.229Z,101348.69
2022-08-28T13:26:57.482Z,101341.66
2022-08-28T13:29:23.843Z,101348.28
2022-08-28T13:31:51.080Z,101346.25
2022-08-28T13:34:17.442Z,101344.53
2022-08-28T13:36:43.751Z,101344.97
2022-08-28T13:39:10.036Z,101345.97
2022-08-28T13:41:36.426Z,101343.53
2022-08-28T13:44:02.798Z,101340.22
2022-08-28T13:46:29.186Z,101345.53
2022-08-28T13:48:55.482Z,101347.56
2022-08-28T13:51:21.787Z,101334.97
2022-08-28T13:53:48.068Z,101328.00
2022-08-28T13:56:15.059Z,101340.63
2022-08-28T13:58:41.333Z,101330.78
2022-08-28T14:01:07.718Z,101341.16
2022-08-28T14:03:33.961Z,101331.09
2022-08-28T14:06:00.986Z,101330.16
2022-08-28T14:08:27.316Z,101328.84
2022-08-28T14:10:53.673Z,101316.50
2022-08-28T14:13:19.940Z,101318.72
2022-08-28T14:15:46.238Z,101317.66
2022-08-28T14:18:12.563Z,101313.50
2022-08-28T14:20:38.841Z,101320.72
2022-08-28T14:23:05.147Z,101317.31
2022-08-28T14:25:33.770Z,101305.94
2022-08-28T14:28:03.454Z,101304.03
2022-08-28T14:30:29.861Z,101299.03
2022-08-28T14:32:56.196Z,101295.75
2022-08-28T14:35:24.680Z,101293.72
2022-08-28T14:37:51.177Z,101288.97
2022-08-28T14:40:17.505Z,101286.84
2022-08-28T14:42:44.874Z,101296.66
2022-08-28T14:45:11.193Z,101279.69
2022-08-28T14:47:37.518Z,101282.28
2022-08-28T14:50:03.835Z,101283.47
2022-08-28T14:52:30.213Z,101276.59
2022-08-28T14:54:56.498Z,101280.06
2022-08-28T14:57:22.994Z,101281.94
2022-08-28T14:59:49.245Z,101283.13
2022-08-28T15:02:15.543Z,101287.38
2022-08-28T15:04:42.016Z,101276.78
2022-08-28T15:07:08.541Z,101276.22
2022-08-28T15:09:34.825Z,101276.38
2022-08-28T15:12:01.165Z,101276.03
2022-08-28T15:14:27.441Z,101276.88
2022-08-28T15:16:53.902Z,101268.72
2022-08-28T15:19:20.272Z,101268.38
2022-08-28T15:21:46.608Z,101267.16
2022-08-28T15:24:12.885Z,101266.81
2022-08-28T15:26:39.215Z,101267.16
2022-08-28T15:29:05.525Z,101264.44
2022-08-28T15:31:32.029Z,101267.00
2022-08-28T15:33:58.528Z,101257.03
2022-08-28T15:36:24.794Z,101262.88
2022-08-28T15:38:51.096Z,101259.88
2022-08-28T15:41:17.393Z,101263.84
2022-08-28T15:43:47.721Z,101266.50
2022-08-28T15:46:14.502Z,101263.38
2022-08-28T15:48:40.917Z,101264.41
2022-08-28T15:51:07.888Z,101264.91
2022-08-28T15:53:34.195Z,101267.25
2022-08-28T15:56:00.485Z,101261.72
2022-08-28T15:58:26.794Z,101255.41
2022-08-28T16:00:53.208Z,101265.69
2022-08-28T16:03:19.584Z,101256.63
2022-08-28T16:05:45.942Z,101258.69
2022-08-28T16:08:14.740Z,101257.13
2022-08-28T16:10:41.094Z,101259.03
2022-08-28T16:13:07.397Z,101259.03
2022-08-28T16:15:33.692Z,101254.22
2022-08-28T16:18:00.248Z,101259.16
2022-08-28T16:20:26.823Z,101262.28
2022-08-28T16:22:55.600Z,101251.66
2022-08-28T16:25:22.058Z,101251.13
2022-08-28T16:27:48.558Z,101252.22
2022-08-28T16:30:15.654Z,101256.00
2022-08-28T16:32:42.450Z,101251.63
2022-08-28T16:35:13.634Z,101248.31
2022-08-28T16:37:40.333Z,101254.53
2022-08-28T16:40:06.731Z,101256.13
2022-08-28T16:42:33.058Z,101256.09
2022-08-28T16:44:59.317Z,101251.41
2022-08-28T16:47:25.592Z,101257.06
2022-08-28T16:49:51.869Z,101247.50
2022-08-28T16:52:18.234Z,101246.69
2022-08-28T16:54:48.346Z,101254.53
2022-08-28T16:57:15.103Z,101251.88
2022-08-28T16:59:41.377Z,101257.94
2022-08-28T17:02:08.092Z,101249.88
2022-08-28T17:04:39.751Z,101250.69
2022-08-28T17:07:06.124Z,101248.16
2022-08-28T17:09:32.464Z,101246.81
2022-08-28T17:11:58.976Z,101248.34
2022-08-28T17:14:26.010Z,101238.72
2022-08-28T17:16:52.302Z,101248.88
2022-08-28T17:19:18.573Z,101246.28
2022-08-28T17:21:44.941Z,101249.56
2022-08-28T17:24:11.235Z,101254.22
2022-08-28T17:26:37.929Z,101242.97
2022-08-28T17:29:08.217Z,101259.97
2022-08-28T17:31:34.754Z,101261.00
2022-08-28T17:34:01.117Z,101255.13
2022-08-28T17:36:33.305Z,101263.69
2022-08-28T17:39:00.533Z,101259.22
2022-08-28T17:41:27.614Z,101261.25
2022-08-28T17:43:53.868Z,101261.91
2022-08-28T17:46:20.307Z,101266.84
2022-08-28T17:48:54.548Z,101259.25
2022-08-28T17:51:33.743Z,101267.91
2022-08-28T17:54:09.746Z,101263.72
2022-08-28T17:56:38.345Z,101267.44
2022-08-28T17:59:04.717Z,101263.41
2022-08-28T18:01:31.457Z,101267.81
2022-08-28T18:03:57.808Z,101280.28
2022-08-28T18:06:24.140Z,101272.00
2022-08-28T18:08:50.637Z,101291.84
2022-08-28T18:11:16.923Z,101288.19
2022-08-28T18:13:43.257Z,101294.31
2022-08-28T18:16:09.671Z,101294.88
2022-08-28T18:18:36.611Z,101301.00
2022-08-28T18:21:03.036Z,101299.06
2022-08-28T18:23:29.601Z,101302.09
2022-08-28T18:25:55.929Z,101308.19
2022-08-28T18:28:22.518Z,101313.59
2022-08-28T18:30:51.779Z,101311.47
2022-08-28T18:33:18.304Z,101313.09
2022-08-28T18:35:49.206Z,101314.59
2022-08-28T18:38:15.984Z,101313.47
2022-08-28T18:40:42.290Z,101316.69
2022-08-28T18:43:08.542Z,101326.06
2022-08-28T18:45:34.817Z,101317.59
2022-08-28T18:48:01.154Z,101320.09
2022-08-28T18:50:27.652Z,101316.94
2022-08-28T18:52:53.975Z,101323.72
2022-08-28T18:55:20.317Z,101334.28
2022-08-28T18:57:46.778Z,101330.09
2022-08-28T19:00:13.708Z,101331.53
2022-08-28T19:02:41.787Z,101333.00
2022-08-28T19:05:08.229Z,101328.84
2022-08-28T19:07:34.738Z,101335.47
2022-08-28T19:10:01.128Z,101327.41
2022-08-28T19:12:27.385Z,101331.72
2022-08-28T19:14:53.710Z,101342.66
2022-08-28T19:17:21.184Z,101333.91
2022-08-28T19:19:47.593Z,101336.94
2022-08-28T19:22:13.880Z,101339.25
2022-08-28T19:24:40.343Z,101341.88
2022-08-28T19:27:06.828Z,101341.31
2022-08-28T19:29:33.136Z,101346.63
2022-08-28T19:31:59.776Z,101351.22
2022-08-28T19:34:26.074Z,101348.78
2022-08-28T19:36:52.331Z,101350.97
2022-08-28T19:39:20.873Z,101360.47
2022-08-28T19:41:47.419Z,101366.38
2022-08-28T19:44:13.893Z,101360.31
2022-08-28T19:46:40.251Z,101364.34
2022-08-28T19:49:06.749Z,101368.97
2022-08-28T19:51:32.990Z,101361.91
2022-08-28T19:53:59.559Z,101366.81
2022-08-28T19:56:25.903Z,101366.25
2022-08-28T19:58:52.367Z,101363.06
2022-08-28T20:01:18.745Z,101371.69
2022-08-28T20:03:45.050Z,101364.94
2022-08-28T20:06:11.388Z,101363.66
2022-08-28T20:08:37.822Z,101371.13
2022-08-28T20:11:04.132Z,101370.53
2022-08-28T20:13:30.533Z,101375.41
2022-08-28T20:15:57.035Z,101378.44
2022-08-28T20:18:23.490Z,101379.72
2022-08-28T20:20:49.745Z,101379.13
2022-08-28T20:23:16.074Z,101384.31
2022-08-28T20:25:42.494Z,101388.19
2022-08-28T20:28:11.570Z,101389.31
2022-08-28T20:30:38.159Z,101394.34
2022-08-28T20:33:04.514Z,101398.38
2022-08-28T20:35:35.242Z,101395.03
2022-08-28T20:38:01.726Z,101397.06
2022-08-28T20:40:28.109Z,101397.19
2022-08-28T20:42:54.406Z,101389.41
2022-08-28T20:45:20.712Z,101394.44
2022-08-28T20:47:47.206Z,101393.69
2022-08-28T20:50:13.674Z,101401.31
2022-08-28T20:52:40.009Z,101396.41
2022-08-28T20:55:06.364Z,101399.69
2022-08-28T20:57:32.734Z,101399.81
2022-08-28T21:00:03.466Z,101394.78
2022-08-28T21:02:32.162Z,101401.50
2022-08-28T21:04:58.743Z,101398.22
2022-08-28T21:07:25.155Z,101403.91
2022-08-28T21:10:06.762Z,101404.03
2022-08-28T21:12:33.978Z,101399.16
2022-08-28T21:15:00.428Z,101401.44
2022-08-28T21:17:29.679Z,101400.34
2022-08-28T21:19:56.967Z,101416.25
2022-08-28T21:22:24.073Z,101410.94
2022-08-28T21:24:50.643Z,101422.34
2022-08-28T21:27:18.583Z,101426.22
2022-08-28T21:29:45.247Z,101420.16
2022-08-28T21:32:11.614Z,101413.13
2022-08-28T21:34:38.046Z,101415.38
2022-08-28T21:37:04.446Z,101418.38
2022-08-28T21:39:30.713Z,101413.06
2022-08-28T21:41:57.122Z,101410.59
2022-08-28T21:44:23.429Z,101405.41
2022-08-28T21:46:49.778Z,101401.84
2022-08-28T21:49:16.090Z,101406.66
2022-08-28T21:51:42.425Z,101412.25
2022-08-28T21:54:08.749Z,101408.94
2022-08-28T21:56:35.092Z,101416.50
2022-08-28T21:59:01.541Z,101419.63
2022-08-28T22:01:27.932Z,101414.72
2022-08-28T22:03:54.225Z,101426.72
2022-08-28T22:06:20.607Z,101429.72
2022-08-28T22:08:47.064Z,101428.22
2022-08-28T22:11:13.372Z,101434.66
2022-08-28T22:13:42.117Z,101435.91
2022-08-28T22:16:09.755Z,101435.31
2022-08-28T22:18:36.258Z,101441.88
2022-08-28T22:21:02.796Z,101435.84
2022-08-28T22:23:29.146Z,101433.63
2022-08-28T22:25:55.522Z,101432.00
2022-08-28T22:28:21.814Z,101434.16
2022-08-28T22:30:48.286Z,101439.72
2022-08-28T22:33:15.634Z,101439.09
2022-08-28T22:35:42.072Z,101432.94
2022-08-28T22:38:08.352Z,101434.28
2022-08-28T22:40:34.854Z,101433.69
2022-08-28T22:43:01.509Z,101433.78
2022-08-28T22:45:27.759Z,101436.03
2022-08-28T22:47:54.091Z,101439.13
2022-08-28T22:50:20.417Z,101446.78
2022-08-28T22:52:46.787Z,101444.19
2022-08-28T22:55:13.213Z,101441.72
2022-08-28T22:57:39.718Z,101451.97
2022-08-28T23:00:06.443Z,101455.94
2022-08-28T23:02:32.819Z,101454.47
2022-08-28T23:04:59.197Z,101455.59
2022-08-28T23:07:25.595Z,101454.94
2022-08-28T23:09:51.900Z,101455.09
2022-08-28T23:12:18.453Z,101454.47
2022-08-28T23:14:48.358Z,101449.28
2022-08-28T23:17:15.249Z,101448.53
2022-08-28T23:19:43.409Z,101446.06
2022-08-28T23:22:12.836Z,101439.25
2022-08-28T23:24:39.267Z,101453.09
2022-08-28T23:27:34.332Z,101451.38
2022-08-28T23:29:53.331Z,101449.75
2022-08-28T23:32:19.913Z,101447.41
2022-08-28T23:34:46.396Z,101446.69
2022-08-28T23:37:12.987Z,101455.06
2022-08-28T23:39:39.298Z,101450.63
2022-08-28T23:42:05.607Z,101446.41
2022-08-28T23:44:32.417Z,101445.69
2022-08-28T23:46:59.416Z,101450.22
2022-08-28T23:49:27.100Z,101450.34
2022-08-28T23:51:55.678Z,101453.19
2022-08-28T23:54:22.033Z,101453.31
2022-08-28T23:56:48.362Z,101442.56
2022-08-28T23:59:17.328Z,101450.72
